Van Wert, OH

9:23 AM EDT on May 06, 2015 (GMT -0400)
KOHDELPH2 | | Change Station
CLOSE
Current Station
Personal Weather Station
Location: Delphos, OH
Elevation: 781 ft
Nearby Weather Stations
Active Advisory: Dense Fog Advisory

Elev 781 ft 40.84 °N, 84.35 °W | Updated 2 minutes ago

Fog
Fog
55.3 °F
Feels Like 55.3 °F
N
0.0
Wind Variable Wind from East
Gusts 4.0 mph

Today
High -- | Low -- °F
--% Chance of Precip.
Yesterday
High -- | Low -- °F
Precip. -- in
6:30 AM 8:39 PM
Waning Gibbous, 94% visible
Pressure 30.23 in
Visibility 0.2 miles
Clouds
Dew Point 53 °F
Humidity 93%
Rainfall 0.00 in
Snow Depth Not available.
UV Not available.
Pollen 10.00 out of 12
Air Quality Not available.
Flu Activity Regional
METAR KAOH 061253Z AUTO 07003KT 1/4SM FG VV002 13/13 A3023 RMK AO2 SLP236 T01280128

More Conditions Fewer Conditions

Pressure 30.23 in
Visibility 0.2 miles
Clouds
Dew Point 53 °F
Humidity 93%
Rainfall 0.00 in
Snow Depth Not available.
UV Not available.
Pollen 10.00 out of 12
Air Quality Not available.
Flu Activity Regional
METAR KAOH 061253Z AUTO 07003KT 1/4SM FG VV002 13/13 A3023 RMK AO2 SLP236 T01280128

More Conditions Fewer Conditions

10-Day Weather Forecast

Almanac

Astronomy

May. 06, 2015 Rise Set
Actual Time
Civil Twilight
Nautical Twilight
Astronomical Twilight
Moon
Length of Visible Light
Length of Day
Tomorrow will be .
, % of the Moon is Illuminated

Today's Extremes

State Highs State Lows

Community

WunderPhotos

Upload Photos

1,818,894 photos uploaded!

WunderBlogs® & News

Nearby

Air Quality

  Air Quality AQ Index Pollutant
Not available.

Snow Depth

Station Depth Elevation

Earthquake Activity

City Distance Mag. Time & Date
Minimum magnitude displayed is 2.5.

Coastal Water Temperatures

Place Temperature

Stations

Nearby Weather Stations

Station Location Temp. Windchill Dew Point Humidity Wind Precip. Elev Updated Type
                   
Dense Fog Advisory
Statement as of 5:31 AM EDT on May 06, 2015

... Dense fog advisory in effect until 10 am EDT this morning...

The National Weather Service in northern Indiana has issued a
dense fog advisory... which is in effect until 10 am EDT this
morning.

Hazardous weather...

* dense fog will be across the area through mid morning.

* Visibility... will be reduced to around one quarter mile or
   less. The dense fog and low visibilities will be most
   widespread across Northwest Ohio.

Impacts...

* reduced visibilities will create hazardous driving conditions
   and possible travel delays. This dense fog will impact travel
   along interstates 75... 69 and and the Indiana and Ohio toll
   Road.


Precautionary/preparedness actions...

A dense fog advisory means visibilities will frequently be
reduced to less than one quarter mile. If driving... slow down...
use your low beam headlights... and leave plenty of distance ahead
of you.